RFF110 UKFF-UKFF
Flight info
| Callsign | RFF110 |
|---|---|
| Flight time | 1h 15m |
| Altitude | 25000 |
| Route | UKFF RITED UKFF |
| Aircraft | SU27/L-SDGR/C |
Departure
| Time | 2026-04-20 23:34 |
|---|---|
| Airport | Simferopol International Airport (UKFF) |
Arrival
| Time | 2026-04-21 00:50 |
|---|---|
| Airport | Simferopol International Airport (UKFF) |
| Time | Latitude | Longitude | Altitude | Speed | Heading |
|---|---|---|---|---|---|
| 2026-04-20 23:24 | 45.03377 | 33.97359 | 609 ft | 0 kts | 208° |
| 2026-04-20 23:25 | 45.03376 | 33.97356 | 607 ft | 2 kts | 226° |
| 2026-04-20 23:25 | 45.03394 | 33.97336 | 607 ft | 5 kts | 341° |
| 2026-04-20 23:26 | 45.03432 | 33.97318 | 606 ft | 5 kts | 341° |
| 2026-04-20 23:26 | 45.03470 | 33.97308 | 607 ft | 5 kts | 4° |
| 2026-04-20 23:26 | 45.03492 | 33.97277 | 607 ft | 5 kts | 290° |
| 2026-04-20 23:26 | 45.03501 | 33.97240 | 607 ft | 0 kts | 284° |
| 2026-04-20 23:32 | 45.03506 | 33.97211 | 608 ft | 8 kts | 284° |
| 2026-04-20 23:32 | 45.03533 | 33.97112 | 607 ft | 12 kts | 295° |
| 2026-04-20 23:32 | 45.03567 | 33.97020 | 607 ft | 9 kts | 315° |
| 2026-04-20 23:32 | 45.03619 | 33.96985 | 607 ft | 10 kts | 341° |
| 2026-04-20 23:33 | 45.03720 | 33.96938 | 607 ft | 21 kts | 341° |
| 2026-04-20 23:33 | 45.03876 | 33.96916 | 609 ft | 12 kts | 14° |
| 2026-04-20 23:33 | 45.03890 | 33.96922 | 609 ft | 20 kts | 14° |
| 2026-04-20 23:33 | 45.04686 | 33.97198 | 618 ft | 224 kts | 13° |
| 2026-04-20 23:34 | 45.06564 | 33.97861 | 1124 ft | 322 kts | 14° |
| 2026-04-20 23:34 | 45.08885 | 33.98712 | 1966 ft | 352 kts | 14° |
| 2026-04-20 23:34 | 45.11264 | 33.99610 | 2828 ft | 355 kts | 14° |
| 2026-04-20 23:34 | 45.13642 | 34.00524 | 3748 ft | 348 kts | 14° |
| 2026-04-20 23:35 | 45.15894 | 34.01025 | 5481 ft | 313 kts | 353° |
| 2026-04-20 23:35 | 45.19847 | 33.99360 | 8266 ft | 286 kts | 335° |
| 2026-04-20 23:35 | 45.21621 | 33.98251 | 9589 ft | 271 kts | 332° |
| 2026-04-20 23:36 | 45.23278 | 33.97193 | 10833 ft | 250 kts | 332° |
| 2026-04-20 23:36 | 45.24793 | 33.96249 | 12058 ft | 224 kts | 332° |
| 2026-04-20 23:36 | 45.26115 | 33.95456 | 13224 ft | 192 kts | 332° |
| 2026-04-20 23:36 | 45.27229 | 33.94834 | 14241 ft | 151 kts | 330° |
| 2026-04-20 23:37 | 45.28462 | 33.94123 | 14193 ft | 237 kts | 330° |
| 2026-04-20 23:37 | 45.30161 | 33.93035 | 13792 ft | 303 kts | 330° |
| 2026-04-20 23:37 | 45.32298 | 33.91661 | 12993 ft | 378 kts | 332° |
| 2026-04-20 23:37 | 45.35192 | 33.89759 | 12138 ft | 540 kts | 333° |
| 2026-04-20 23:38 | 45.39047 | 33.87157 | 10853 ft | 651 kts | 333° |
| 2026-04-20 23:38 | 45.43210 | 33.84324 | 9528 ft | 670 kts | 333° |
| 2026-04-20 23:38 | 45.47439 | 33.81441 | 8319 ft | 677 kts | 333° |
| 2026-04-20 23:38 | 45.51696 | 33.78535 | 7291 ft | 680 kts | 333° |
| 2026-04-20 23:39 | 45.55929 | 33.75649 | 7728 ft | 661 kts | 333° |
| 2026-04-20 23:39 | 45.60025 | 33.72861 | 9231 ft | 645 kts | 333° |
| 2026-04-20 23:39 | 45.64050 | 33.70123 | 10646 ft | 639 kts | 333° |
| 2026-04-20 23:39 | 45.68117 | 33.67335 | 10404 ft | 654 kts | 332° |
| 2026-04-20 23:40 | 45.72244 | 33.64469 | 10016 ft | 663 kts | 332° |
| 2026-04-20 23:40 | 45.76523 | 33.61482 | 9585 ft | 720 kts | 332° |
| 2026-04-20 23:40 | 45.80817 | 33.58480 | 8982 ft | 658 kts | 332° |
| 2026-04-20 23:40 | 45.84836 | 33.55685 | 8430 ft | 629 kts | 332° |
| 2026-04-20 23:41 | 45.88678 | 33.53020 | 8054 ft | 614 kts | 332° |
| 2026-04-20 23:41 | 45.92495 | 33.50373 | 8008 ft | 609 kts | 332° |
| 2026-04-20 23:41 | 45.96336 | 33.47705 | 7871 ft | 616 kts | 332° |
| 2026-04-20 23:41 | 46.00225 | 33.45000 | 7652 ft | 624 kts | 332° |
| 2026-04-20 23:42 | 46.04145 | 33.42270 | 7357 ft | 629 kts | 332° |
| 2026-04-20 23:42 | 46.08093 | 33.39516 | 7008 ft | 632 kts | 332° |
| 2026-04-20 23:42 | 46.12058 | 33.36747 | 6702 ft | 634 kts | 332° |
| 2026-04-20 23:42 | 46.16012 | 33.33983 | 6765 ft | 630 kts | 332° |
| 2026-04-20 23:43 | 46.19946 | 33.31233 | 6923 ft | 627 kts | 332° |
| 2026-04-20 23:43 | 46.23859 | 33.28496 | 7143 ft | 624 kts | 332° |
| 2026-04-20 23:43 | 46.27753 | 33.25747 | 7319 ft | 618 kts | 333° |
| 2026-04-20 23:43 | 46.31667 | 33.23044 | 6965 ft | 626 kts | 332° |
| 2026-04-20 23:44 | 46.35616 | 33.20339 | 6617 ft | 630 kts | 332° |
| 2026-04-20 23:44 | 46.39594 | 33.17625 | 6157 ft | 635 kts | 332° |
| 2026-04-20 23:44 | 46.43229 | 33.14174 | 6269 ft | 620 kts | 317° |
| 2026-04-20 23:44 | 46.46521 | 33.10109 | 6130 ft | 624 kts | 316° |
| 2026-04-20 23:45 | 46.49827 | 33.06018 | 6119 ft | 623 kts | 316° |
| 2026-04-20 23:45 | 46.53122 | 33.01940 | 6257 ft | 622 kts | 316° |
| 2026-04-20 23:45 | 46.56416 | 32.97863 | 6360 ft | 622 kts | 316° |
| 2026-04-20 23:45 | 46.59558 | 32.93682 | 6272 ft | 615 kts | 300° |
| 2026-04-20 23:46 | 46.60910 | 32.87934 | 6184 ft | 604 kts | 282° |
| 2026-04-20 23:46 | 46.62009 | 32.82010 | 5950 ft | 608 kts | 282° |
| 2026-04-20 23:46 | 46.63114 | 32.76047 | 5490 ft | 613 kts | 282° |
| 2026-04-20 23:46 | 46.64227 | 32.70031 | 4878 ft | 616 kts | 282° |
| 2026-04-20 23:47 | 46.65340 | 32.64000 | 4119 ft | 619 kts | 282° |
| 2026-04-20 23:47 | 46.66452 | 32.57926 | 3284 ft | 620 kts | 280° |
| 2026-04-20 23:47 | 46.66631 | 32.51867 | 4123 ft | 591 kts | 266° |
| 2026-04-20 23:47 | 46.65871 | 32.46085 | 4554 ft | 582 kts | 254° |
| 2026-04-20 23:48 | 46.64863 | 32.40322 | 4417 ft | 590 kts | 254° |
| 2026-04-20 23:48 | 46.63851 | 32.34473 | 4200 ft | 597 kts | 254° |
| 2026-04-20 23:48 | 46.62851 | 32.28688 | 4283 ft | 596 kts | 254° |
| 2026-04-20 23:48 | 46.61840 | 32.22838 | 4460 ft | 596 kts | 255° |
| 2026-04-20 23:49 | 46.60830 | 32.16992 | 4626 ft | 596 kts | 255° |
| 2026-04-20 23:49 | 46.59819 | 32.11146 | 4730 ft | 595 kts | 255° |
| 2026-04-20 23:49 | 46.58807 | 32.05306 | 4781 ft | 596 kts | 255° |
| 2026-04-20 23:49 | 46.57794 | 31.99461 | 4769 ft | 596 kts | 255° |
| 2026-04-20 23:50 | 46.56781 | 31.93603 | 4714 ft | 597 kts | 255° |
| 2026-04-20 23:50 | 46.55769 | 31.87755 | 4594 ft | 598 kts | 255° |
| 2026-04-20 23:50 | 46.54748 | 31.81880 | 4743 ft | 596 kts | 255° |
| 2026-04-20 23:50 | 46.53735 | 31.76064 | 5226 ft | 590 kts | 255° |
| 2026-04-20 23:51 | 46.52734 | 31.70319 | 5789 ft | 585 kts | 255° |
| 2026-04-20 23:51 | 46.51738 | 31.64606 | 6371 ft | 581 kts | 255° |
| 2026-04-20 23:51 | 46.51084 | 31.60856 | 6726 ft | 578 kts | 255° |
| 2026-04-20 23:51 | 46.49766 | 31.53301 | 7384 ft | 576 kts | 255° |
| 2026-04-20 23:52 | 46.49116 | 31.49575 | 7678 ft | 575 kts | 255° |
| 2026-04-20 23:52 | 46.47814 | 31.42113 | 8186 ft | 576 kts | 255° |
| 2026-04-20 23:52 | 46.46832 | 31.36481 | 8497 ft | 577 kts | 255° |
| 2026-04-20 23:52 | 46.45843 | 31.30821 | 8754 ft | 578 kts | 255° |
| 2026-04-20 23:53 | 46.44854 | 31.25155 | 8982 ft | 580 kts | 256° |
| 2026-04-20 23:53 | 46.44182 | 31.21321 | 9095 ft | 582 kts | 256° |
| 2026-04-20 23:53 | 46.43180 | 31.15686 | 9190 ft | 584 kts | 256° |
| 2026-04-20 23:53 | 46.42145 | 31.09997 | 9378 ft | 584 kts | 255° |
| 2026-04-20 23:54 | 46.41098 | 31.04305 | 9525 ft | 585 kts | 255° |
| 2026-04-20 23:54 | 46.40046 | 30.98617 | 9714 ft | 584 kts | 255° |
| 2026-04-20 23:54 | 46.38991 | 30.92929 | 9864 ft | 585 kts | 255° |
| 2026-04-20 23:54 | 46.37935 | 30.87242 | 10008 ft | 585 kts | 255° |
| 2026-04-20 23:55 | 46.36876 | 30.81557 | 10156 ft | 584 kts | 255° |
| 2026-04-20 23:55 | 46.35816 | 30.75866 | 10312 ft | 584 kts | 255° |
| 2026-04-20 23:55 | 46.34757 | 30.70205 | 10442 ft | 584 kts | 255° |
| 2026-04-20 23:55 | 46.33841 | 30.64478 | 10437 ft | 585 kts | 266° |
| 2026-04-20 23:56 | 46.34277 | 30.58632 | 9989 ft | 592 kts | 289° |
| 2026-04-20 23:56 | 46.36277 | 30.53429 | 9584 ft | 598 kts | 310° |
| 2026-04-20 23:56 | 46.39500 | 30.49618 | 9150 ft | 604 kts | 331° |
| 2026-04-20 23:56 | 46.43455 | 30.48413 | 10988 ft | 570 kts | 357° |
| 2026-04-20 23:57 | 46.47309 | 30.48494 | 13266 ft | 539 kts | 1° |
| 2026-04-20 23:57 | 46.50949 | 30.48993 | 15485 ft | 514 kts | 5° |
| 2026-04-20 23:57 | 46.54385 | 30.49920 | 17783 ft | 489 kts | 11° |
| 2026-04-20 23:57 | 46.57564 | 30.51285 | 19999 ft | 463 kts | 17° |
| 2026-04-20 23:58 | 46.60423 | 30.53076 | 22336 ft | 431 kts | 23° |
| 2026-04-20 23:58 | 46.63030 | 30.54815 | 24646 ft | 390 kts | 20° |
| 2026-04-20 23:58 | 46.65383 | 30.56159 | 26967 ft | 333 kts | 17° |
| 2026-04-20 23:58 | 46.67509 | 30.57193 | 29481 ft | 321 kts | 15° |
| 2026-04-20 23:59 | 46.69589 | 30.58056 | 31856 ft | 297 kts | 9° |
| 2026-04-20 23:59 | 46.71652 | 30.58742 | 32730 ft | 329 kts | 6° |
| 2026-04-20 23:59 | 46.74046 | 30.59290 | 32746 ft | 358 kts | 2° |
| 2026-04-20 23:59 | 46.76287 | 30.59569 | 34376 ft | 288 kts | 354° |
| 2026-04-21 00:00 | 46.78111 | 30.59580 | 36527 ft | 244 kts | 351° |
| 2026-04-21 00:00 | 46.79981 | 30.59575 | 36446 ft | 277 kts | 355° |
| 2026-04-21 00:00 | 46.82097 | 30.59682 | 35711 ft | 341 kts | 356° |
| 2026-04-21 00:00 | 46.84815 | 30.59748 | 34279 ft | 439 kts | 355° |
| 2026-04-21 00:01 | 46.88226 | 30.59770 | 31521 ft | 559 kts | 359° |
| 2026-04-21 00:01 | 46.92734 | 30.59885 | 26786 ft | 745 kts | 359° |
| 2026-04-21 00:01 | 46.98091 | 30.59991 | 26671 ft | 765 kts | 359° |
| 2026-04-21 00:01 | 47.03332 | 30.60084 | 26610 ft | 740 kts | 359° |
| 2026-04-21 00:02 | 47.08405 | 30.60149 | 26591 ft | 719 kts | 358° |
| 2026-04-21 00:02 | 47.13290 | 30.60245 | 26553 ft | 702 kts | 359° |
| 2026-04-21 00:02 | 47.18119 | 30.60384 | 26517 ft | 687 kts | 359° |
| 2026-04-21 00:02 | 47.22848 | 30.60552 | 26924 ft | 666 kts | 359° |
| 2026-04-21 00:03 | 47.27414 | 30.60735 | 27932 ft | 648 kts | 359° |
| 2026-04-21 00:03 | 47.31884 | 30.60920 | 28999 ft | 638 kts | 359° |
| 2026-04-21 00:03 | 47.36306 | 30.61102 | 30095 ft | 634 kts | 359° |
| 2026-04-21 00:03 | 47.40703 | 30.61288 | 31062 ft | 630 kts | 359° |
| 2026-04-21 00:04 | 47.45160 | 30.61488 | 32087 ft | 664 kts | 359° |
| 2026-04-21 00:04 | 47.49968 | 30.61703 | 33130 ft | 709 kts | 359° |
| 2026-04-21 00:04 | 47.55078 | 30.61931 | 33490 ft | 760 kts | 359° |
| 2026-04-21 00:04 | 47.60539 | 30.62158 | 33647 ft | 808 kts | 360° |
| 2026-04-21 00:05 | 47.66311 | 30.62383 | 33683 ft | 856 kts | 360° |
| 2026-04-21 00:05 | 47.72480 | 30.62604 | 33747 ft | 918 kts | 359° |
| 2026-04-21 00:05 | 47.79125 | 30.62821 | 33780 ft | 987 kts | 360° |
| 2026-04-21 00:05 | 47.86177 | 30.63033 | 33836 ft | 1040 kts | 360° |
| 2026-04-21 00:06 | 47.93483 | 30.63236 | 33960 ft | 1082 kts | 360° |
| 2026-04-21 00:06 | 48.01158 | 30.63437 | 34086 ft | 1118 kts | 360° |
| 2026-04-21 00:06 | 48.09046 | 30.63636 | 34265 ft | 1150 kts | 360° |
| 2026-04-21 00:06 | 48.17146 | 30.63835 | 34420 ft | 1178 kts | 360° |
| 2026-04-21 00:07 | 48.25429 | 30.64037 | 34548 ft | 1202 kts | 360° |
| 2026-04-21 00:07 | 48.33858 | 30.64242 | 34737 ft | 1221 kts | 360° |
| 2026-04-21 00:07 | 48.42413 | 30.64456 | 34904 ft | 1237 kts | 360° |
| 2026-04-21 00:07 | 48.51065 | 30.64672 | 35059 ft | 1250 kts | 360° |
| 2026-04-21 00:08 | 48.59814 | 30.64895 | 35226 ft | 1262 kts | 360° |
| 2026-04-21 00:08 | 48.68622 | 30.65128 | 35379 ft | 1271 kts | 360° |
| 2026-04-21 00:08 | 48.77498 | 30.65371 | 35535 ft | 1279 kts | 360° |
| 2026-04-21 00:08 | 48.86424 | 30.65618 | 35708 ft | 1285 kts | 360° |
| 2026-04-21 00:09 | 48.95374 | 30.65871 | 35868 ft | 1291 kts | 360° |
| 2026-04-21 00:09 | 49.04385 | 30.66146 | 36042 ft | 1295 kts | 0° |
| 2026-04-21 00:09 | 49.13409 | 30.66590 | 36187 ft | 1300 kts | 1° |
| 2026-04-21 00:09 | 49.22473 | 30.67234 | 36358 ft | 1303 kts | 2° |
| 2026-04-21 00:10 | 49.31543 | 30.68072 | 36501 ft | 1293 kts | 3° |
| 2026-04-21 00:10 | 49.40368 | 30.69085 | 36618 ft | 1254 kts | 4° |
| 2026-04-21 00:10 | 49.48838 | 30.70253 | 36711 ft | 1222 kts | 4° |
| 2026-04-21 00:10 | 49.57225 | 30.71601 | 36646 ft | 1196 kts | 5° |
| 2026-04-21 00:11 | 49.65414 | 30.73118 | 36661 ft | 1173 kts | 6° |
| 2026-04-21 00:11 | 49.73449 | 30.74802 | 36656 ft | 1154 kts | 7° |
| 2026-04-21 00:11 | 49.81322 | 30.76647 | 36671 ft | 1136 kts | 8° |
| 2026-04-21 00:11 | 49.89073 | 30.78658 | 36698 ft | 1120 kts | 8° |
| 2026-04-21 00:12 | 49.96685 | 30.80826 | 36695 ft | 1105 kts | 9° |
| 2026-04-21 00:12 | 50.04177 | 30.83153 | 36708 ft | 1092 kts | 10° |
| 2026-04-21 00:12 | 50.11557 | 30.85635 | 36742 ft | 1079 kts | 11° |
| 2026-04-21 00:12 | 50.18709 | 30.88225 | 36750 ft | 1046 kts | 12° |
| 2026-04-21 00:13 | 50.25647 | 30.90926 | 36698 ft | 1010 kts | 13° |
| 2026-04-21 00:13 | 50.32327 | 30.93713 | 36647 ft | 981 kts | 14° |
| 2026-04-21 00:13 | 50.38820 | 30.96567 | 36567 ft | 957 kts | 14° |
| 2026-04-21 00:13 | 50.45170 | 30.99332 | 36397 ft | 936 kts | 9° |
| 2026-04-21 00:14 | 50.51087 | 30.97680 | 29767 ft | 838 kts | 314° |
| 2026-04-21 00:14 | 50.52497 | 30.88736 | 15960 ft | 994 kts | 254° |
| 2026-04-21 00:14 | 50.49983 | 30.78502 | 7560 ft | 990 kts | 249° |
| 2026-04-21 00:14 | 50.47433 | 30.68576 | 3319 ft | 954 kts | 248° |
| 2026-04-21 00:15 | 50.45017 | 30.59275 | 3342 ft | 893 kts | 248° |
| 2026-04-21 00:15 | 50.42704 | 30.50418 | 3014 ft | 867 kts | 248° |
| 2026-04-21 00:15 | 50.40420 | 30.41740 | 2311 ft | 853 kts | 248° |
| 2026-04-21 00:15 | 50.38261 | 30.33564 | 5438 ft | 646 kts | 248° |
| 2026-04-21 00:16 | 50.37711 | 30.31773 | 22089 ft | 363 kts | 68° |
| 2026-04-21 00:16 | 50.39009 | 30.38018 | 25852 ft | 696 kts | 71° |
| 2026-04-21 00:16 | 50.40551 | 30.45823 | 25334 ft | 800 kts | 71° |
| 2026-04-21 00:16 | 50.42277 | 30.54637 | 24211 ft | 886 kts | 75° |
| 2026-04-21 00:17 | 50.43666 | 30.64731 | 19803 ft | 1029 kts | 78° |
| 2026-04-21 00:17 | 50.44859 | 30.75815 | 23575 ft | 1019 kts | 81° |
| 2026-04-21 00:17 | 50.45747 | 30.86931 | 28689 ft | 1043 kts | 86° |
| 2026-04-21 00:17 | 50.45610 | 30.98476 | 32638 ft | 1075 kts | 96° |
| 2026-04-21 00:18 | 50.44283 | 31.10214 | 35070 ft | 1106 kts | 105° |
| 2026-04-21 00:18 | 50.41721 | 31.21306 | 36681 ft | 1037 kts | 117° |
| 2026-04-21 00:18 | 50.38153 | 31.30606 | 37899 ft | 963 kts | 128° |
| 2026-04-21 00:18 | 50.33839 | 31.38234 | 37808 ft | 915 kts | 139° |
| 2026-04-21 00:19 | 50.28919 | 31.43988 | 36784 ft | 878 kts | 153° |
| 2026-04-21 00:19 | 50.23405 | 31.47559 | 35826 ft | 840 kts | 167° |
| 2026-04-21 00:19 | 50.17788 | 31.48580 | 35625 ft | 793 kts | 184° |
| 2026-04-21 00:19 | 50.12494 | 31.47302 | 35608 ft | 751 kts | 200° |
| 2026-04-21 00:20 | 50.07847 | 31.44073 | 35629 ft | 715 kts | 208° |
| 2026-04-21 00:20 | 50.03439 | 31.40802 | 35760 ft | 689 kts | 208° |
| 2026-04-21 00:20 | 49.99225 | 31.37502 | 35846 ft | 666 kts | 210° |
| 2026-04-21 00:20 | 49.95229 | 31.34052 | 35893 ft | 649 kts | 212° |
| 2026-04-21 00:21 | 49.91284 | 31.30812 | 35872 ft | 637 kts | 206° |
| 2026-04-21 00:21 | 49.87179 | 31.28338 | 35698 ft | 630 kts | 199° |
| 2026-04-21 00:21 | 49.82916 | 31.26916 | 35227 ft | 622 kts | 188° |
| 2026-04-21 00:21 | 49.78609 | 31.26753 | 34900 ft | 618 kts | 178° |
| 2026-04-21 00:22 | 49.74354 | 31.27739 | 34282 ft | 622 kts | 168° |
| 2026-04-21 00:22 | 49.70230 | 31.29630 | 33274 ft | 628 kts | 165° |
| 2026-04-21 00:22 | 49.66096 | 31.31650 | 33196 ft | 617 kts | 165° |
| 2026-04-21 00:23 | 49.58063 | 31.35981 | 33054 ft | 608 kts | 161° |
| 2026-04-21 00:23 | 49.50159 | 31.40378 | 32945 ft | 601 kts | 164° |
| 2026-04-21 00:23 | 49.46333 | 31.42994 | 32729 ft | 610 kts | 146° |
| 2026-04-21 00:24 | 49.43236 | 31.47505 | 32542 ft | 617 kts | 134° |
| 2026-04-21 00:24 | 49.37741 | 31.57644 | 32409 ft | 617 kts | 131° |
| 2026-04-21 00:25 | 49.32375 | 31.67920 | 32288 ft | 616 kts | 131° |
| 2026-04-21 00:25 | 49.29536 | 31.72804 | 32163 ft | 611 kts | 143° |
| 2026-04-21 00:25 | 49.26092 | 31.76535 | 32057 ft | 606 kts | 154° |
| 2026-04-21 00:25 | 49.22134 | 31.79694 | 31976 ft | 679 kts | 162° |
| 2026-04-21 00:26 | 49.17568 | 31.82493 | 31880 ft | 731 kts | 161° |
| 2026-04-21 00:26 | 49.12707 | 31.85360 | 31808 ft | 764 kts | 162° |
| 2026-04-21 00:26 | 49.07628 | 31.88252 | 31740 ft | 791 kts | 163° |
| 2026-04-21 00:26 | 49.02387 | 31.91207 | 31676 ft | 814 kts | 163° |
| 2026-04-21 00:27 | 48.96985 | 31.94241 | 31620 ft | 842 kts | 163° |
| 2026-04-21 00:27 | 48.91382 | 31.97379 | 31598 ft | 876 kts | 162° |
| 2026-04-21 00:27 | 48.85522 | 32.00653 | 31560 ft | 921 kts | 162° |
| 2026-04-21 00:27 | 48.79439 | 32.04045 | 31481 ft | 964 kts | 162° |
| 2026-04-21 00:28 | 48.73021 | 32.07615 | 31399 ft | 996 kts | 162° |
| 2026-04-21 00:28 | 48.66434 | 32.11269 | 31340 ft | 1018 kts | 162° |
| 2026-04-21 00:28 | 48.59723 | 32.14979 | 31300 ft | 1035 kts | 162° |
| 2026-04-21 00:28 | 48.52920 | 32.18731 | 31236 ft | 1047 kts | 162° |
| 2026-04-21 00:29 | 48.46034 | 32.22517 | 31256 ft | 1057 kts | 162° |
| 2026-04-21 00:29 | 48.32111 | 32.30138 | 31258 ft | 1071 kts | 162° |
| 2026-04-21 00:30 | 48.18013 | 32.37811 | 31257 ft | 1081 kts | 162° |
| 2026-04-21 00:30 | 48.03737 | 32.45200 | 31144 ft | 1085 kts | 168° |
| 2026-04-21 00:30 | 47.96298 | 32.46892 | 30945 ft | 1082 kts | 177° |
| 2026-04-21 00:31 | 47.88778 | 32.47808 | 31141 ft | 1082 kts | 177° |
| 2026-04-21 00:31 | 47.73866 | 32.50156 | 31196 ft | 1088 kts | 174° |
| 2026-04-21 00:31 | 47.66253 | 32.51815 | 31227 ft | 1128 kts | 173° |
| 2026-04-21 00:32 | 47.58378 | 32.53718 | 31211 ft | 1162 kts | 172° |
| 2026-04-21 00:32 | 47.50311 | 32.55813 | 31250 ft | 1189 kts | 172° |
| 2026-04-21 00:32 | 47.42096 | 32.58089 | 31166 ft | 1212 kts | 170° |
| 2026-04-21 00:32 | 47.33864 | 32.61240 | 30979 ft | 1235 kts | 163° |
| 2026-04-21 00:33 | 47.25698 | 32.65393 | 31137 ft | 1248 kts | 163° |
| 2026-04-21 00:33 | 47.08894 | 32.72624 | 31063 ft | 1269 kts | 163° |
| 2026-04-21 00:34 | 46.91903 | 32.80098 | 31105 ft | 1280 kts | 166° |
| 2026-04-21 00:34 | 46.74845 | 32.88092 | 31053 ft | 1291 kts | 166° |
| 2026-04-21 00:35 | 46.57629 | 32.95831 | 30886 ft | 1304 kts | 159° |
| 2026-04-21 00:35 | 46.49252 | 33.00917 | 31052 ft | 1304 kts | 161° |
| 2026-04-21 00:35 | 46.40554 | 33.04571 | 30599 ft | 1302 kts | 172° |
| 2026-04-21 00:35 | 46.31581 | 33.05999 | 30821 ft | 1298 kts | 177° |
| 2026-04-21 00:36 | 46.22656 | 33.06880 | 31018 ft | 1298 kts | 178° |
| 2026-04-21 00:36 | 46.04593 | 33.08345 | 31131 ft | 1300 kts | 178° |
| 2026-04-21 00:37 | 45.86533 | 33.10097 | 31076 ft | 1305 kts | 174° |
| 2026-04-21 00:37 | 45.68614 | 33.14794 | 31019 ft | 1307 kts | 173° |
| 2026-04-21 00:38 | 45.50625 | 33.18757 | 31061 ft | 1309 kts | 170° |
| 2026-04-21 00:38 | 45.32739 | 33.22579 | 31114 ft | 1292 kts | 172° |
| 2026-04-21 00:38 | 45.24639 | 33.24747 | 31003 ft | 1077 kts | 171° |
| 2026-04-21 00:39 | 45.17947 | 33.26208 | 31018 ft | 877 kts | 174° |
| 2026-04-21 00:39 | 45.12453 | 33.27442 | 31107 ft | 725 kts | 174° |
| 2026-04-21 00:39 | 45.07886 | 33.28458 | 31101 ft | 609 kts | 174° |
| 2026-04-21 00:39 | 45.03970 | 33.29336 | 31149 ft | 534 kts | 174° |
| 2026-04-21 00:40 | 45.01625 | 33.29862 | 31170 ft | 496 kts | 175° |
| 2026-04-21 00:40 | 44.98393 | 33.30587 | 31177 ft | 446 kts | 175° |
| 2026-04-21 00:40 | 44.94571 | 33.31445 | 31183 ft | 387 kts | 176° |
| 2026-04-21 00:40 | 44.92855 | 33.31828 | 31187 ft | 367 kts | 176° |
| 2026-04-21 00:41 | 44.89703 | 33.32534 | 31191 ft | 326 kts | 177° |
| 2026-04-21 00:41 | 44.87565 | 33.33013 | 31190 ft | 296 kts | 178° |
| 2026-04-21 00:41 | 44.86231 | 33.33312 | 31194 ft | 277 kts | 178° |
| 2026-04-21 00:41 | 44.83858 | 33.33842 | 31199 ft | 251 kts | 179° |
| 2026-04-21 00:42 | 44.82702 | 33.34094 | 31205 ft | 246 kts | 179° |
| 2026-04-21 00:42 | 44.81112 | 33.34793 | 30065 ft | 254 kts | 147° |
| 2026-04-21 00:42 | 44.79394 | 33.36844 | 25199 ft | 388 kts | 139° |
| 2026-04-21 00:42 | 44.77277 | 33.39836 | 20444 ft | 460 kts | 138° |
| 2026-04-21 00:43 | 44.74879 | 33.43139 | 16176 ft | 494 kts | 139° |
| 2026-04-21 00:43 | 44.72379 | 33.46518 | 12041 ft | 500 kts | 139° |
| 2026-04-21 00:43 | 44.69888 | 33.50244 | 8919 ft | 608 kts | 121° |
| 2026-04-21 00:43 | 44.68743 | 33.56734 | 8520 ft | 706 kts | 102° |
| 2026-04-21 00:44 | 44.67982 | 33.63456 | 8294 ft | 687 kts | 99° |
| 2026-04-21 00:44 | 44.67396 | 33.69884 | 7927 ft | 639 kts | 97° |
| 2026-04-21 00:44 | 44.68508 | 33.75351 | 7544 ft | 595 kts | 28° |
| 2026-04-21 00:45 | 44.74517 | 33.81064 | 6000 ft | 454 kts | 35° |
| 2026-04-21 00:45 | 44.76985 | 33.83539 | 5205 ft | 418 kts | 33° |
| 2026-04-21 00:45 | 44.79361 | 33.85485 | 5285 ft | 369 kts | 27° |
| 2026-04-21 00:45 | 44.81500 | 33.87091 | 5530 ft | 329 kts | 27° |
| 2026-04-21 00:46 | 44.83414 | 33.88519 | 5508 ft | 302 kts | 26° |
| 2026-04-21 00:46 | 44.85202 | 33.89811 | 5471 ft | 276 kts | 21° |
| 2026-04-21 00:46 | 44.86960 | 33.90651 | 5232 ft | 259 kts | 16° |
| 2026-04-21 00:46 | 44.88629 | 33.91425 | 4982 ft | 246 kts | 16° |
| 2026-04-21 00:47 | 44.90212 | 33.92164 | 4700 ft | 233 kts | 15° |
| 2026-04-21 00:47 | 44.91710 | 33.92864 | 4253 ft | 223 kts | 13° |
| 2026-04-21 00:47 | 44.93223 | 33.93426 | 3766 ft | 225 kts | 12° |
| 2026-04-21 00:47 | 44.94739 | 33.93930 | 3338 ft | 224 kts | 11° |
| 2026-04-21 00:48 | 44.96270 | 33.94388 | 2863 ft | 226 kts | 11° |
| 2026-04-21 00:48 | 44.97809 | 33.94814 | 2439 ft | 224 kts | 12° |
| 2026-04-21 00:48 | 44.99312 | 33.95325 | 1949 ft | 220 kts | 15° |
| 2026-04-21 00:48 | 45.00780 | 33.95829 | 1397 ft | 215 kts | 14° |
| 2026-04-21 00:49 | 45.02185 | 33.96335 | 1023 ft | 201 kts | 15° |
| 2026-04-21 00:49 | 45.03474 | 33.96782 | 686 ft | 185 kts | 13° |
| 2026-04-21 00:49 | 45.04664 | 33.97189 | 605 ft | 160 kts | 13° |
| 2026-04-21 00:49 | 45.05421 | 33.97445 | 609 ft | 64 kts | 13° |
| 2026-04-21 00:50 | 45.05736 | 33.97552 | 607 ft | 25 kts | 17° |
| 2026-04-21 00:50 | 45.05826 | 33.97676 | 611 ft | 17 kts | 44° |
| 2026-04-21 00:50 | 45.05903 | 33.97791 | 608 ft | 15 kts | 68° |
| 2026-04-21 00:50 | 45.05870 | 33.97912 | 608 ft | 13 kts | 158° |
| 2026-04-21 00:51 | 45.05787 | 33.97895 | 608 ft | 11 kts | 190° |
| 2026-04-21 00:51 | 45.05715 | 33.97876 | 608 ft | 10 kts | 191° |
| 2026-04-21 00:51 | 45.05653 | 33.97859 | 608 ft | 8 kts | 191° |
| 2026-04-21 00:51 | 45.05599 | 33.97844 | 608 ft | 7 kts | 191° |
| 2026-04-21 00:52 | 45.05554 | 33.97831 | 607 ft | 6 kts | 191° |
| 2026-04-21 00:52 | 45.05516 | 33.97820 | 608 ft | 5 kts | 191° |
| 2026-04-21 00:52 | 45.05449 | 33.97801 | 608 ft | 14 kts | 191° |
| 2026-04-21 00:52 | 45.05359 | 33.97776 | 608 ft | 12 kts | 191° |
| 2026-04-21 00:53 | 45.05278 | 33.97753 | 606 ft | 11 kts | 191° |
| 2026-04-21 00:53 | 45.05182 | 33.97726 | 607 ft | 15 kts | 191° |
| 2026-04-21 00:53 | 45.05088 | 33.97694 | 607 ft | 13 kts | 198° |
| 2026-04-21 00:53 | 45.05005 | 33.97663 | 607 ft | 12 kts | 193° |
| 2026-04-21 00:54 | 45.04931 | 33.97638 | 608 ft | 10 kts | 193° |
| 2026-04-21 00:54 | 45.04867 | 33.97616 | 608 ft | 9 kts | 193° |
| 2026-04-21 00:54 | 45.04812 | 33.97597 | 608 ft | 7 kts | 193° |
| 2026-04-21 00:54 | 45.04766 | 33.97581 | 608 ft | 6 kts | 193° |
| 2026-04-21 00:55 | 45.04727 | 33.97568 | 608 ft | 5 kts | 193° |
| 2026-04-21 00:55 | 45.04682 | 33.97553 | 608 ft | 11 kts | 193° |
| 2026-04-21 00:55 | 45.04567 | 33.97513 | 608 ft | 23 kts | 193° |
| 2026-04-21 00:55 | 45.04384 | 33.97451 | 608 ft | 28 kts | 193° |
| 2026-04-21 00:56 | 45.04200 | 33.97389 | 608 ft | 26 kts | 193° |
| 2026-04-21 00:56 | 45.04027 | 33.97331 | 608 ft | 25 kts | 193° |
| 2026-04-21 00:56 | 45.03867 | 33.97273 | 608 ft | 23 kts | 196° |
| 2026-04-21 00:56 | 45.03716 | 33.97225 | 608 ft | 21 kts | 192° |
| 2026-04-21 00:57 | 45.03576 | 33.97186 | 608 ft | 20 kts | 171° |
| 2026-04-21 00:57 | 45.03496 | 33.97314 | 608 ft | 17 kts | 122° |
| 2026-04-21 00:57 | 45.03458 | 33.97465 | 608 ft | 16 kts | 103° |
| 2026-04-21 00:57 | 45.03433 | 33.97605 | 608 ft | 14 kts | 105° |
| 2026-04-21 00:58 | 45.03402 | 33.97678 | 608 ft | 5 kts | 210° |
| 2026-04-21 00:58 | 45.03369 | 33.97650 | 608 ft | 4 kts | 212° |
| 2026-04-21 00:58 | 45.03366 | 33.97653 | 608 ft | 0 kts | 154° |
| 2026-04-21 00:58 | 45.03365 | 33.97667 | 608 ft | 0 kts | 72° |
| 2026-04-21 00:59 | 45.03369 | 33.97669 | 608 ft | 1 kts | 24° |
| 2026-04-21 00:59 | 45.03379 | 33.97674 | 608 ft | 0 kts | 16° |